Time;durP1;ratioP1;P1;durP2;ratioP2;P2;SDS_P1;SDS_P2;PMS_P1;PMS_P2;Temp;Humidity;BMP_temperature;BMP_pressure;BME280_temperature;BME280_humidity;BME280_pressure;Samples;Min_cycle;Max_cycle;Signal;HPM_P1;HPM_P2
2022/02/20 00:01:41;;;;;;;20.70;12.35;;;13.00;96.70;;;;;;5063964;28;20082;-78
2022/02/20 00:04:09;;;;;;;16.58;11.68;;;13.00;96.70;;;;;;5068359;28;20400;-77
2022/02/20 00:06:38;;;;;;;18.05;10.57;;;13.00;96.70;;;;;;5046816;28;20525;-77
2022/02/20 00:09:06;;;;;;;18.35;11.00;;;13.00;96.70;;;;;;5063006;28;20110;-78
2022/02/20 00:11:35;;;;;;;15.30;9.18;;;13.00;96.70;;;;;;5064359;28;20681;-77
2022/02/20 00:14:03;;;;;;;12.20;8.48;;;12.90;96.70;;;;;;5063574;28;20036;-77
2022/02/20 00:16:31;;;;;;;13.13;8.70;;;12.90;96.70;;;;;;5065910;28;20082;-78
2022/02/20 00:19:04;;;;;;;15.82;9.35;;;12.90;96.70;;;;;;5063944;28;20094;-78
2022/02/20 00:21:33;;;;;;;12.25;8.23;;;12.80;96.70;;;;;;5067342;28;20037;-78
2022/02/20 00:24:03;;;;;;;15.95;8.07;;;12.80;96.70;;;;;;5062724;28;20421;-78
2022/02/20 00:26:31;;;;;;;10.65;7.57;;;12.80;96.70;;;;;;5063318;28;20072;-78
2022/02/20 00:28:59;;;;;;;15.38;7.45;;;12.80;96.70;;;;;;5063098;28;20052;-78
2022/02/20 00:31:28;;;;;;;14.15;7.93;;;12.80;96.70;;;;;;5062295;28;20064;-79
2022/02/20 00:33:56;;;;;;;13.15;8.23;;;12.80;96.70;;;;;;5064017;28;20055;-79
2022/02/20 00:36:25;;;;;;;11.45;6.90;;;12.80;96.70;;;;;;5060128;28;20044;-79
2022/02/20 00:38:53;;;;;;;12.35;7.32;;;12.70;96.70;;;;;;5078570;28;20062;-79
2022/02/20 00:41:22;;;;;;;12.50;6.82;;;12.70;96.70;;;;;;5070210;28;20138;-79
2022/02/20 00:43:50;;;;;;;12.65;6.88;;;12.70;96.70;;;;;;5080676;28;20509;-79
2022/02/20 00:46:18;;;;;;;11.32;7.53;;;12.70;96.70;;;;;;5061845;28;20040;-79
2022/02/20 00:48:48;;;;;;;11.57;6.85;;;12.70;96.70;;;;;;5064654;28;20070;-79
2022/02/20 00:51:16;;;;;;;12.60;6.65;;;12.70;96.70;;;;;;5065184;28;20036;-79
2022/02/20 00:53:45;;;;;;;11.25;6.68;;;12.60;96.70;;;;;;5068229;28;20459;-79
2022/02/20 00:56:13;;;;;;;13.48;7.32;;;12.50;96.70;;;;;;5063288;28;20285;-79
2022/02/20 00:58:44;;;;;;;13.93;6.32;;;12.50;96.70;;;;;;5062627;28;20145;-79
2022/02/20 01:01:13;;;;;;;11.43;6.35;;;12.50;96.70;;;;;;5069907;28;20056;-78
2022/02/20 01:03:44;;;;;;;9.40;6.70;;;12.50;96.70;;;;;;5046710;28;20098;-79
2022/02/20 01:06:12;;;;;;;11.60;6.68;;;12.50;96.70;;;;;;5063498;28;20528;-78
2022/02/20 01:08:40;;;;;;;10.27;6.38;;;12.50;96.70;;;;;;5070939;28;20040;-79
2022/02/20 01:11:08;;;;;;;11.55;6.38;;;12.50;96.70;;;;;;5064922;28;20044;-78
2022/02/20 01:13:36;;;;;;;11.98;7.32;;;12.40;96.70;;;;;;5053149;28;20363;-79
2022/02/20 01:16:06;;;;;;;11.25;7.43;;;12.40;96.70;;;;;;5041794;28;20044;-79
2022/02/20 01:18:34;;;;;;;9.73;7.10;;;12.40;96.70;;;;;;5059877;28;20132;-78
2022/02/20 01:21:03;;;;;;;12.63;7.45;;;12.40;96.70;;;;;;5064099;28;20099;-79
2022/02/20 01:23:31;;;;;;;11.82;6.72;;;12.30;96.70;;;;;;5062158;28;20367;-79
2022/02/20 01:25:59;;;;;;;11.05;7.53;;;12.30;96.70;;;;;;5058634;28;20375;-79
2022/02/20 01:28:27;;;;;;;10.60;6.78;;;12.30;96.70;;;;;;5063980;28;20049;-78
2022/02/20 01:30:55;;;;;;;9.45;6.47;;;12.30;96.70;;;;;;5065973;28;20127;-79
2022/02/20 01:33:25;;;;;;;12.25;6.88;;;12.40;96.70;;;;;;5062924;28;20044;-79
2022/02/20 01:35:55;;;;;;;10.77;6.85;;;12.40;96.70;;;;;;5093662;27;20037;-79
2022/02/20 01:38:25;;;;;;;9.02;6.32;;;12.40;96.70;;;;;;5062813;28;20052;-79
2022/02/20 01:40:56;;;;;;;8.90;6.45;;;12.40;96.70;;;;;;5060775;28;20733;-79
2022/02/20 01:43:26;;;;;;;8.02;5.57;;;12.30;96.70;;;;;;5065642;28;20055;-79
2022/02/20 01:45:56;;;;;;;10.90;6.00;;;12.20;96.70;;;;;;5065269;28;20294;-79
2022/02/20 01:48:29;;;;;;;11.55;6.82;;;12.20;96.70;;;;;;5065407;28;20041;-79
2022/02/20 01:51:00;;;;;;;9.30;6.77;;;12.20;96.70;;;;;;5080923;28;20063;-78
2022/02/20 01:53:28;;;;;;;10.90;6.50;;;12.20;96.70;;;;;;5063533;28;20653;-79
2022/02/20 01:56:00;;;;;;;11.18;6.53;;;12.20;96.70;;;;;;5063229;28;20028;-79
2022/02/20 01:58:32;;;;;;;9.52;6.68;;;12.10;96.70;;;;;;5068647;28;20113;-79
2022/02/20 02:01:28;;;;;;;11.80;6.20;;;12.10;96.70;;;;;;5077257;28;20048;-77
2022/02/20 02:04:09;;;;;;;14.82;6.53;;;12.10;96.70;;;;;;5062546;28;20047;-79
2022/02/20 02:06:45;;;;;;;10.95;6.35;;;12.00;96.70;;;;;;5046550;28;20044;-78
2022/02/20 02:09:18;;;;;;;10.75;6.35;;;11.90;96.70;;;;;;5062556;28;20143;-78
2022/02/20 02:12:06;;;;;;;10.75;6.55;;;11.90;96.70;;;;;;5082015;27;20048;-78
2022/02/20 02:14:54;;;;;;;8.27;6.03;;;11.90;96.70;;;;;;5060931;28;20125;-78
2022/02/20 02:17:40;;;;;;;10.88;6.30;;;11.90;96.70;;;;;;5069470;28;20472;-79
2022/02/20 02:20:30;;;;;;;7.03;5.60;;;11.80;96.70;;;;;;5049749;28;20041;-79
2022/02/20 02:23:32;;;;;;;10.90;5.13;;;11.90;96.70;;;;;;5027093;28;20052;-78
2022/02/20 02:26:13;;;;;;;7.35;4.88;;;11.90;96.70;;;;;;5059921;28;20438;-78
2022/02/20 02:28:50;;;;;;;9.60;5.18;;;11.90;96.70;;;;;;5059915;28;20055;-78
2022/02/20 02:31:21;;;;;;;8.05;4.53;;;11.90;96.70;;;;;;5045842;28;20138;-78
2022/02/20 02:33:53;;;;;;;7.78;4.45;;;11.80;96.70;;;;;;5062308;28;20051;-78
2022/02/20 02:36:21;;;;;;;7.25;4.40;;;11.80;96.70;;;;;;5043285;28;20135;-78
2022/02/20 02:38:51;;;;;;;9.27;4.53;;;11.70;96.70;;;;;;5061180;28;20044;-78
2022/02/20 02:41:20;;;;;;;8.32;4.53;;;11.70;96.70;;;;;;5041198;28;20404;-78
2022/02/20 02:43:53;;;;;;;7.80;4.35;;;11.70;96.70;;;;;;5058096;28;20087;-78
2022/02/20 02:46:24;;;;;;;6.90;4.35;;;11.60;96.70;;;;;;5044049;28;20036;-78
2022/02/20 02:48:54;;;;;;;6.53;4.00;;;11.60;96.70;;;;;;5030182;28;20417;-78
2022/02/20 02:51:22;;;;;;;6.95;4.03;;;11.50;96.70;;;;;;5034332;28;20516;-78
2022/02/20 02:53:53;;;;;;;7.72;5.03;;;11.50;96.70;;;;;;5047814;28;20032;-78
2022/02/20 02:56:21;;;;;;;7.70;4.15;;;11.50;96.70;;;;;;5030786;28;20045;-78
2022/02/20 02:58:50;;;;;;;9.05;5.05;;;11.40;96.70;;;;;;5047319;28;20166;-79
2022/02/20 03:01:20;;;;;;;6.00;4.38;;;11.30;96.70;;;;;;5047105;28;20067;-78
2022/02/20 03:03:49;;;;;;;8.02;4.25;;;11.30;96.70;;;;;;5038338;28;20056;-78
2022/02/20 03:06:21;;;;;;;8.75;5.00;;;11.20;96.70;;;;;;5026874;28;20048;-78
2022/02/20 03:09:02;;;;;;;8.30;4.75;;;11.30;96.70;;;;;;5029400;28;20041;-79
2022/02/20 03:11:30;;;;;;;8.90;4.72;;;11.20;96.70;;;;;;5060362;28;20053;-79
2022/02/20 03:13:59;;;;;;;7.82;4.20;;;11.30;96.70;;;;;;5027519;28;20141;-79
2022/02/20 03:16:29;;;;;;;10.50;4.32;;;11.30;96.70;;;;;;5045548;28;20171;-79
2022/02/20 03:18:57;;;;;;;6.60;3.90;;;11.30;96.70;;;;;;5041387;28;20110;-79
2022/02/20 03:21:25;;;;;;;6.55;4.18;;;11.20;96.70;;;;;;5062385;28;20033;-79
2022/02/20 03:23:53;;;;;;;10.65;4.00;;;11.30;96.70;;;;;;5040795;28;20560;-79
2022/02/20 03:26:26;;;;;;;7.03;4.00;;;11.30;96.70;;;;;;5028322;28;20044;-78
2022/02/20 03:28:57;;;;;;;9.13;4.15;;;11.10;96.70;;;;;;5030242;28;20580;-79
2022/02/20 03:31:28;;;;;;;6.70;4.07;;;11.20;96.70;;;;;;5057874;28;20051;-79
2022/02/20 03:33:57;;;;;;;6.13;4.35;;;11.20;96.70;;;;;;5044144;28;20047;-79
2022/02/20 03:36:28;;;;;;;7.28;6.55;;;11.20;96.70;;;;;;5030532;28;20033;-79
2022/02/20 03:38:56;;;;;;;6.30;4.32;;;11.20;96.70;;;;;;5071645;28;20041;-79
2022/02/20 03:41:29;;;;;;;5.80;4.10;;;11.10;96.70;;;;;;5068132;28;20468;-79
2022/02/20 03:43:58;;;;;;;8.30;4.18;;;11.10;96.70;;;;;;5058526;28;20118;-78
2022/02/20 03:46:44;;;;;;;6.18;3.92;;;11.10;96.70;;;;;;5063489;28;20309;-79
2022/02/20 03:49:12;;;;;;;5.78;3.72;;;11.00;96.70;;;;;;5053655;28;20067;-78
2022/02/20 03:51:59;;;;;;;6.63;4.43;;;11.00;96.70;;;;;;5072646;28;20052;-78
2022/02/20 03:54:39;;;;;;;7.05;4.07;;;11.00;96.70;;;;;;5062759;28;20037;-79
2022/02/20 03:57:08;;;;;;;11.10;4.45;;;11.10;96.70;;;;;;5048497;28;20045;-79
2022/02/20 04:00:11;;;;;;;7.20;4.07;;;11.10;96.70;;;;;;5041465;28;20045;-79
2022/02/20 04:02:42;;;;;;;6.15;3.60;;;11.10;96.70;;;;;;5063923;28;20084;-79
2022/02/20 04:05:16;;;;;;;6.38;3.47;;;11.10;96.70;;;;;;5063433;28;20057;-79
2022/02/20 04:07:46;;;;;;;5.72;3.65;;;11.20;96.70;;;;;;5062293;28;20040;-79
2022/02/20 04:10:16;;;;;;;6.75;4.20;;;11.20;96.70;;;;;;5066805;28;20728;-79
2022/02/20 04:12:45;;;;;;;6.60;4.32;;;10.90;96.70;;;;;;5063076;28;20053;-79
2022/02/20 04:15:16;;;;;;;7.15;3.58;;;11.00;96.70;;;;;;5071024;28;20049;-79
2022/02/20 04:17:50;;;;;;;7.72;4.15;;;11.10;96.70;;;;;;5080899;28;20051;-79
2022/02/20 04:20:19;;;;;;;6.57;4.22;;;11.10;96.70;;;;;;5063717;28;20163;-79
2022/02/20 04:22:51;;;;;;;5.47;3.92;;;11.20;96.70;;;;;;5081670;28;20044;-79
2022/02/20 04:25:25;;;;;;;5.15;4.13;;;11.10;96.70;;;;;;5065460;28;20520;-79
2022/02/20 04:27:57;;;;;;;5.55;3.95;;;11.10;96.70;;;;;;5064921;28;20074;-79
2022/02/20 04:30:28;;;;;;;6.90;3.65;;;11.20;96.70;;;;;;5066818;28;20048;-79
2022/02/20 04:33:02;;;;;;;6.97;3.83;;;11.20;96.70;;;;;;5068068;28;20073;-79
2022/02/20 04:35:31;;;;;;;6.38;3.78;;;11.20;96.70;;;;;;5061559;28;20067;-79
2022/02/20 04:38:00;;;;;;;6.63;3.83;;;11.30;96.70;;;;;;5063975;28;20517;-79
2022/02/20 04:40:29;;;;;;;6.03;3.85;;;11.40;96.70;;;;;;5031156;28;20045;-79
2022/02/20 04:43:07;;;;;;;5.97;3.58;;;11.40;96.70;;;;;;5063111;28;20118;-78
2022/02/20 04:45:35;;;;;;;5.85;3.28;;;11.30;96.70;;;;;;5035086;28;20045;-78
2022/02/20 04:48:09;;;;;;;4.50;3.60;;;11.30;96.70;;;;;;5029548;28;20045;-78
2022/02/20 04:50:37;;;;;;;6.28;3.22;;;11.30;96.70;;;;;;5040066;28;20055;-77
2022/02/20 04:53:13;;;;;;;6.53;4.00;;;11.20;96.70;;;;;;5046416;28;20144;-78
2022/02/20 04:55:45;;;;;;;7.65;4.22;;;11.10;96.70;;;;;;5044999;28;20629;-77
2022/02/20 04:58:15;;;;;;;7.18;4.35;;;11.10;96.70;;;;;;5047825;28;20059;-79
2022/02/20 05:00:44;;;;;;;7.95;3.90;;;11.10;96.70;;;;;;5027307;28;20152;-79
2022/02/20 05:03:15;;;;;;;5.88;3.92;;;11.00;96.70;;;;;;5066744;28;20051;-78
2022/02/20 05:05:52;;;;;;;6.95;3.60;;;11.00;96.70;;;;;;5065511;28;20126;-79
2022/02/20 05:08:34;;;;;;;6.25;3.63;;;11.00;96.70;;;;;;5065482;28;20044;-79
2022/02/20 05:11:02;;;;;;;7.10;3.63;;;11.00;96.70;;;;;;5045766;28;20056;-79
2022/02/20 05:13:36;;;;;;;5.38;3.38;;;10.90;96.70;;;;;;5046963;28;20123;-79
2022/02/20 05:16:05;;;;;;;4.85;3.40;;;10.90;96.70;;;;;;5045518;28;21307;-79
2022/02/20 05:18:33;;;;;;;6.15;3.47;;;10.90;96.70;;;;;;5046913;28;20544;-79
2022/02/20 05:21:02;;;;;;;6.57;3.60;;;10.90;96.70;;;;;;5030346;28;20044;-79
2022/02/20 05:23:32;;;;;;;7.50;3.33;;;10.80;96.70;;;;;;5042330;28;20715;-79
2022/02/20 05:26:01;;;;;;;6.95;3.20;;;10.70;96.70;;;;;;5051036;28;20543;-78
2022/02/20 05:28:30;;;;;;;6.88;3.60;;;10.70;96.70;;;;;;5029517;28;20040;-79
2022/02/20 05:31:05;;;;;;;8.80;4.20;;;10.70;96.70;;;;;;5047210;28;20048;-79
2022/02/20 05:33:35;;;;;;;10.60;4.45;;;10.70;96.70;;;;;;5044168;28;20037;-79
2022/02/20 05:36:03;;;;;;;8.57;4.80;;;10.70;96.70;;;;;;5046873;28;20140;-79
2022/02/20 05:38:41;;;;;;;8.38;4.75;;;10.70;96.70;;;;;;5032203;28;20056;-79
2022/02/20 05:41:09;;;;;;;10.18;5.82;;;10.70;96.70;;;;;;5046262;28;20052;-79
2022/02/20 05:43:39;;;;;;;8.98;4.72;;;10.70;96.70;;;;;;5045878;28;20044;-79
2022/02/20 05:46:12;;;;;;;8.82;5.30;;;10.70;96.70;;;;;;5046244;28;20045;-79
2022/02/20 05:48:40;;;;;;;10.45;4.88;;;10.60;96.70;;;;;;5064175;28;20071;-79
2022/02/20 05:51:17;;;;;;;8.10;5.53;;;10.60;96.70;;;;;;5064882;28;20466;-79
2022/02/20 05:53:56;;;;;;;7.93;5.03;;;10.60;96.70;;;;;;5076891;28;20101;-79
2022/02/20 05:56:27;;;;;;;11.63;5.95;;;10.60;96.70;;;;;;5063243;28;20611;-79
2022/02/20 05:58:57;;;;;;;8.90;5.55;;;10.60;96.70;;;;;;5062257;28;20044;-79
2022/02/20 06:01:31;;;;;;;8.70;5.53;;;10.60;96.70;;;;;;5061230;28;20039;-79
2022/02/20 06:04:03;;;;;;;7.85;4.85;;;10.70;96.70;;;;;;5045131;28;20055;-79
2022/02/20 06:06:42;;;;;;;9.85;4.88;;;10.60;96.70;;;;;;5049577;28;20481;-79
2022/02/20 06:09:24;;;;;;;7.13;4.88;;;10.50;96.70;;;;;;5062797;28;20049;-79
2022/02/20 06:12:06;;;;;;;11.10;4.88;;;10.40;96.70;;;;;;5075041;28;20052;-79
2022/02/20 06:15:10;;;;;;;8.20;4.65;;;10.40;96.70;;;;;;5010040;28;20046;-79
2022/02/20 06:18:16;;;;;;;8.05;4.78;;;10.30;96.70;;;;;;5001437;28;20427;-79
2022/02/20 06:21:07;;;;;;;6.28;4.30;;;10.20;96.70;;;;;;5059427;28;20052;-79
2022/02/20 06:23:50;;;;;;;6.38;4.20;;;10.30;96.70;;;;;;5046035;28;20048;-79
2022/02/20 06:26:30;;;;;;;8.13;5.07;;;10.30;96.70;;;;;;5059677;28;20044;-79
2022/02/20 06:28:58;;;;;;;5.57;4.68;;;10.40;96.70;;;;;;5062722;28;20053;-79
2022/02/20 06:31:26;;;;;;;6.70;5.25;;;10.40;96.70;;;;;;5065447;28;20070;-79
2022/02/20 06:33:56;;;;;;;7.43;5.05;;;10.40;96.70;;;;;;5064870;28;20045;-79
2022/02/20 06:36:25;;;;;;;10.90;6.63;;;10.30;96.70;;;;;;5093151;28;20045;-79
2022/02/20 06:38:53;;;;;;;21.23;8.73;;;10.40;96.70;;;;;;5056360;28;20254;-79
2022/02/20 06:41:27;;;;;;;22.20;9.73;;;10.30;96.70;;;;;;5066537;28;20315;-79
2022/02/20 06:43:57;;;;;;;49.67;9.30;;;10.40;96.70;;;;;;5030061;28;20044;-79
2022/02/20 06:46:44;;;;;;;33.50;9.77;;;10.40;96.70;;;;;;5066215;28;20059;-79
2022/02/20 06:49:21;;;;;;;51.20;11.50;;;10.50;96.70;;;;;;5028534;28;20053;-79
2022/02/20 06:52:21;;;;;;;30.85;10.15;;;10.50;96.70;;;;;;5016090;28;20048;-79
2022/02/20 06:55:11;;;;;;;54.28;11.95;;;10.50;96.70;;;;;;5045895;28;20082;-79
2022/02/20 06:57:59;;;;;;;41.67;10.52;;;10.50;96.70;;;;;;5060700;28;20037;-79
2022/02/20 07:00:28;;;;;;;28.83;11.05;;;10.50;96.70;;;;;;5063251;28;20048;-79
2022/02/20 07:02:56;;;;;;;23.08;9.98;;;10.50;96.70;;;;;;5043677;28;20119;-79
2022/02/20 07:05:26;;;;;;;44.17;11.30;;;10.50;96.70;;;;;;5042738;28;20072;-79
2022/02/20 07:07:54;;;;;;;38.78;11.02;;;10.60;96.70;;;;;;5044832;28;20044;-79
2022/02/20 07:10:22;;;;;;;44.38;12.27;;;10.50;96.70;;;;;;5060470;28;20676;-79
2022/02/20 07:12:50;;;;;;;32.40;11.55;;;10.60;96.70;;;;;;5043138;28;20571;-79
2022/02/20 07:15:18;;;;;;;36.92;12.27;;;10.60;96.70;;;;;;5044360;28;20102;-79
2022/02/20 07:17:46;;;;;;;34.17;11.60;;;10.70;96.70;;;;;;5028977;28;20068;-79
2022/02/20 07:20:14;;;;;;;28.65;10.88;;;10.60;96.70;;;;;;5043110;28;20036;-79
2022/02/20 07:22:45;;;;;;;40.67;10.95;;;10.60;96.70;;;;;;5031414;28;20048;-79
2022/02/20 07:25:13;;;;;;;23.80;11.52;;;10.60;96.70;;;;;;5044906;28;20657;-79
2022/02/20 07:27:43;;;;;;;32.63;13.35;;;10.70;96.70;;;;;;5067347;28;20116;-78
2022/02/20 07:30:13;;;;;;;29.80;11.80;;;10.70;96.70;;;;;;5046435;28;20409;-79
2022/02/20 07:32:42;;;;;;;17.98;11.35;;;10.80;96.70;;;;;;5047998;28;20044;-79
2022/02/20 07:35:10;;;;;;;21.40;12.05;;;10.80;96.70;;;;;;5066274;28;20368;-79
2022/02/20 07:37:38;;;;;;;20.35;12.00;;;10.90;96.70;;;;;;5047538;28;20122;-79
2022/02/20 07:40:08;;;;;;;19.33;12.88;;;10.90;96.70;;;;;;5077483;28;20513;-79
2022/02/20 07:42:37;;;;;;;13.93;11.20;;;11.00;96.70;;;;;;5077621;28;20551;-79
2022/02/20 07:45:06;;;;;;;18.10;12.50;;;11.00;96.70;;;;;;5064217;28;20377;-79
2022/02/20 07:47:47;;;;;;;21.23;13.10;;;11.00;96.70;;;;;;5065390;28;20036;-79
2022/02/20 07:50:16;;;;;;;22.27;14.52;;;11.00;96.70;;;;;;5063830;28;20506;-79
2022/02/20 07:52:44;;;;;;;16.67;11.45;;;11.00;96.70;;;;;;5060386;28;20044;-79
2022/02/20 07:55:14;;;;;;;14.95;12.00;;;11.00;96.70;;;;;;5077316;28;20463;-79
2022/02/20 07:57:43;;;;;;;14.38;11.52;;;11.10;96.70;;;;;;5071131;28;20041;-79
2022/02/20 08:00:13;;;;;;;13.70;11.25;;;11.30;96.70;;;;;;5063104;28;20041;-79
2022/02/20 08:02:42;;;;;;;15.98;12.90;;;11.40;96.70;;;;;;5048114;28;20380;-79
2022/02/20 08:05:10;;;;;;;15.45;12.55;;;11.40;96.70;;;;;;5079843;28;20525;-79
2022/02/20 08:07:38;;;;;;;15.52;13.55;;;11.50;96.70;;;;;;5064509;28;20045;-79
2022/02/20 08:10:07;;;;;;;16.65;13.70;;;11.60;96.70;;;;;;5077810;28;20063;-79
2022/02/20 08:12:37;;;;;;;14.93;12.15;;;11.70;96.70;;;;;;5062163;28;20033;-79
2022/02/20 08:15:05;;;;;;;15.45;13.25;;;11.70;96.70;;;;;;5063282;28;20060;-79
2022/02/20 08:17:33;;;;;;;20.92;16.38;;;11.80;96.70;;;;;;5046272;28;20567;-79
2022/02/20 08:20:02;;;;;;;22.40;16.92;;;11.90;96.70;;;;;;5059089;28;20143;-79
2022/02/20 08:22:29;;;;;;;20.60;16.27;;;11.90;96.70;;;;;;5060938;28;20119;-80
2022/02/20 08:24:58;;;;;;;24.45;16.98;;;11.90;96.70;;;;;;5071038;28;20509;-79
2022/02/20 08:27:25;;;;;;;22.05;17.80;;;12.00;96.70;;;;;;5062843;28;20135;-79
2022/02/20 08:29:55;;;;;;;20.52;16.25;;;12.00;96.70;;;;;;5047916;28;20043;-79
2022/02/20 08:32:23;;;;;;;17.20;14.25;;;12.00;96.70;;;;;;5082722;28;20398;-80
2022/02/20 08:34:51;;;;;;;18.95;13.55;;;12.00;96.70;;;;;;5103022;27;20041;-80
2022/02/20 08:37:19;;;;;;;17.83;13.20;;;12.10;96.70;;;;;;5069139;28;20043;-79
2022/02/20 08:39:47;;;;;;;16.83;11.77;;;12.20;96.70;;;;;;5044991;28;20055;-80
2022/02/20 08:42:16;;;;;;;16.40;10.82;;;12.30;96.70;;;;;;5026606;28;20040;-80
2022/02/20 08:44:44;;;;;;;13.65;10.73;;;12.30;96.70;;;;;;5037351;28;20045;-81
2022/02/20 08:47:14;;;;;;;13.82;10.20;;;12.20;96.70;;;;;;5040026;28;20107;-79
2022/02/20 08:49:42;;;;;;;11.45;8.90;;;12.20;96.70;;;;;;5075305;28;20047;-79
2022/02/20 08:52:11;;;;;;;12.65;10.18;;;12.30;96.70;;;;;;5048908;28;20839;-80
2022/02/20 08:54:39;;;;;;;28.83;20.42;;;12.40;96.70;;;;;;5028214;28;20636;-80
2022/02/20 08:57:08;;;;;;;14.88;12.70;;;12.40;96.70;;;;;;5062153;28;20047;-79
2022/02/20 08:59:36;;;;;;;14.13;11.80;;;12.40;96.70;;;;;;5065720;28;20060;-80
2022/02/20 09:02:05;;;;;;;13.98;11.30;;;12.60;96.70;;;;;;5032033;28;20052;-79
2022/02/20 09:04:34;;;;;;;14.07;10.90;;;12.70;96.70;;;;;;5036539;28;20162;-80
2022/02/20 09:07:02;;;;;;;13.45;10.35;;;12.80;96.70;;;;;;5043935;28;20463;-80
2022/02/20 09:09:31;;;;;;;13.50;10.52;;;12.90;96.70;;;;;;5044676;28;20629;-79
2022/02/20 09:11:59;;;;;;;14.00;11.05;;;13.00;96.70;;;;;;5051591;28;20044;-80
2022/02/20 09:14:27;;;;;;;13.45;10.48;;;13.10;96.70;;;;;;5044610;28;20041;-79
2022/02/20 09:16:55;;;;;;;12.40;10.50;;;13.20;96.70;;;;;;5044953;28;20032;-80
2022/02/20 09:19:23;;;;;;;15.25;11.38;;;13.30;96.70;;;;;;5064787;28;20044;-79
2022/02/20 09:21:53;;;;;;;23.33;17.40;;;13.40;96.70;;;;;;5041606;28;20501;-80
2022/02/20 09:24:22;;;;;;;12.80;10.25;;;13.50;96.70;;;;;;5046716;28;20071;-80
2022/02/20 09:26:51;;;;;;;11.70;10.02;;;13.50;96.70;;;;;;5043753;28;20451;-80
2022/02/20 09:29:19;;;;;;;14.10;11.73;;;13.70;96.70;;;;;;5030936;28;20044;-80
2022/02/20 09:31:47;;;;;;;11.90;10.65;;;13.80;96.70;;;;;;5046011;28;20219;-79
2022/02/20 09:34:15;;;;;;;13.45;10.82;;;13.90;96.70;;;;;;5044186;28;20041;-79
2022/02/20 09:36:43;;;;;;;20.63;15.02;;;13.90;96.70;;;;;;5063449;28;20048;-80
2022/02/20 09:39:12;;;;;;;15.23;11.52;;;14.00;96.70;;;;;;5042904;28;20059;-80
2022/02/20 09:41:42;;;;;;;14.68;10.80;;;14.10;96.70;;;;;;5065895;28;20040;-79
2022/02/20 09:44:10;;;;;;;13.00;10.38;;;14.10;96.70;;;;;;5059842;28;20143;-80
2022/02/20 09:46:42;;;;;;;14.02;11.05;;;14.20;96.70;;;;;;5061387;28;20414;-79
2022/02/20 09:49:10;;;;;;;17.85;9.57;;;14.40;96.70;;;;;;5075349;28;20391;-79
2022/02/20 09:51:38;;;;;;;12.65;9.60;;;14.40;96.70;;;;;;5097898;27;20528;-79
2022/02/20 09:54:07;;;;;;;13.63;9.70;;;14.40;96.70;;;;;;5046357;28;20048;-79
2022/02/20 09:56:38;;;;;;;14.10;10.57;;;14.50;96.70;;;;;;5059901;28;20032;-79
2022/02/20 09:59:06;;;;;;;14.68;9.75;;;14.70;96.70;;;;;;5064474;28;20052;-79
2022/02/20 10:01:34;;;;;;;12.52;9.20;;;14.80;96.70;;;;;;5102631;27;20044;-80
2022/02/20 10:04:12;;;;;;;20.40;14.02;;;14.80;96.70;;;;;;5060627;28;20053;-79
2022/02/20 10:06:48;;;;;;;18.05;11.80;;;14.90;96.70;;;;;;5079036;28;20051;-78
2022/02/20 10:09:21;;;;;;;13.65;9.25;;;14.90;96.70;;;;;;5062325;28;20131;-79
2022/02/20 10:11:50;;;;;;;15.80;11.30;;;15.00;96.70;;;;;;5078237;28;20052;-79
2022/02/20 10:14:18;;;;;;;19.42;11.98;;;15.10;96.70;;;;;;5078219;28;20414;-79
2022/02/20 10:16:46;;;;;;;15.93;12.07;;;15.20;96.70;;;;;;5045526;28;20037;-79
2022/02/20 10:19:35;;;;;;;14.35;10.90;;;15.30;96.70;;;;;;5051122;28;20599;-79
2022/02/20 10:22:41;;;;;;;12.65;8.43;;;15.30;96.70;;;;;;5035139;28;20044;-79
2022/02/20 10:25:28;;;;;;;11.48;7.88;;;15.30;96.70;;;;;;5037941;28;20126;-80
2022/02/20 10:28:18;;;;;;;13.82;8.93;;;15.40;96.70;;;;;;5051987;28;20064;-80
2022/02/20 10:30:55;;;;;;;13.70;9.23;;;15.50;96.70;;;;;;5057234;28;20094;-80
2022/02/20 10:33:24;;;;;;;14.73;8.35;;;15.60;96.70;;;;;;5064267;28;20149;-78
2022/02/20 10:35:53;;;;;;;11.40;6.93;;;15.70;96.70;;;;;;5064528;28;20080;-79
2022/02/20 10:38:23;;;;;;;9.07;6.22;;;15.80;96.70;;;;;;5061106;28;20498;-79
2022/02/20 10:40:52;;;;;;;6.57;4.40;;;15.80;96.70;;;;;;5062119;28;20502;-80
2022/02/20 10:43:27;;;;;;;6.63;4.35;;;16.00;96.70;;;;;;5046492;28;20040;-79
2022/02/20 10:46:09;;;;;;;11.20;5.78;;;16.10;96.70;;;;;;5045008;28;20137;-79
2022/02/20 10:48:39;;;;;;;9.13;3.92;;;16.10;96.70;;;;;;5062745;28;20301;-79
2022/02/20 10:51:07;;;;;;;8.55;4.10;;;16.30;96.70;;;;;;5061375;28;20631;-80
2022/02/20 10:53:35;;;;;;;8.07;4.25;;;16.30;96.70;;;;;;5045091;28;20040;-80
2022/02/20 10:56:04;;;;;;;9.35;4.90;;;16.50;96.70;;;;;;5057566;28;20218;-80
2022/02/20 10:58:41;;;;;;;10.23;4.72;;;16.50;96.70;;;;;;5046020;28;20052;-78
2022/02/20 11:01:19;;;;;;;5.95;3.95;;;16.60;96.70;;;;;;5063617;28;20726;-80
2022/02/20 11:03:48;;;;;;;6.60;3.70;;;16.70;96.70;;;;;;5063921;28;20442;-81
2022/02/20 11:06:17;;;;;;;7.47;3.40;;;16.80;96.70;;;;;;5066462;28;20048;-81
2022/02/20 11:08:46;;;;;;;6.18;2.95;;;16.80;96.70;;;;;;5048213;28;20036;-80
2022/02/20 11:14:05;;;;;;;8.35;3.55;;;17.00;96.70;;;;;;5072677;28;20094;-81
2022/02/20 11:16:33;;;;;;;8.63;3.92;;;17.00;96.70;;;;;;5048019;28;20051;-81
2022/02/20 11:19:04;;;;;;;6.50;4.30;;;17.10;96.70;;;;;;5065475;28;20070;-80
2022/02/20 11:21:37;;;;;;;8.18;3.63;;;17.20;96.70;;;;;;5029759;28;20045;-80
2022/02/20 11:24:07;;;;;;;7.50;3.22;;;17.00;96.70;;;;;;5030970;28;20041;-80
2022/02/20 11:26:38;;;;;;;6.90;2.40;;;17.10;96.70;;;;;;5049731;28;20576;-81
2022/02/20 11:29:08;;;;;;;5.55;2.95;;;17.20;96.70;;;;;;5063132;28;20045;-80
2022/02/20 11:31:38;;;;;;;4.70;2.22;;;17.40;96.70;;;;;;5030390;28;20090;-81
2022/02/20 11:34:08;;;;;;;5.35;2.60;;;17.50;96.70;;;;;;5048001;28;20044;-81
2022/02/20 11:36:36;;;;;;;9.48;4.47;;;17.70;96.70;;;;;;5069340;28;20060;-80
2022/02/20 11:39:09;;;;;;;4.32;2.33;;;17.70;96.70;;;;;;5046270;28;20135;-80
2022/02/20 11:41:39;;;;;;;8.57;3.05;;;17.80;96.70;;;;;;5043382;28;20047;-80
2022/02/20 11:44:14;;;;;;;6.28;2.70;;;17.90;96.70;;;;;;5046832;28;20044;-80
2022/02/20 11:46:48;;;;;;;7.30;2.75;;;17.90;96.70;;;;;;5064107;28;20502;-81
2022/02/20 11:49:26;;;;;;;4.90;2.78;;;17.90;96.70;;;;;;5053646;28;20558;-80
2022/02/20 11:52:04;;;;;;;4.55;2.40;;;18.00;96.70;;;;;;5045892;28;20713;-79
2022/02/20 11:54:34;;;;;;;5.30;2.55;;;18.10;96.70;;;;;;5060637;28;20068;-79
2022/02/20 11:57:23;;;;;;;3.78;2.33;;;18.20;96.70;;;;;;5066315;28;20044;-78
2022/02/20 12:00:20;;;;;;;5.30;3.08;;;18.40;96.70;;;;;;5046152;28;20129;-79
2022/02/20 12:03:04;;;;;;;5.82;2.38;;;18.30;96.70;;;;;;5045808;28;20110;-79
2022/02/20 12:05:33;;;;;;;4.35;1.92;;;18.40;96.70;;;;;;5043453;28;20194;-80
2022/02/20 12:08:05;;;;;;;4.28;1.70;;;18.40;96.70;;;;;;5029499;28;20493;-79
2022/02/20 12:10:35;;;;;;;5.70;2.17;;;18.40;96.70;;;;;;5064160;28;20045;-79
2022/02/20 12:13:29;;;;;;;6.55;2.60;;;18.40;96.70;;;;;;5061642;28;20126;-80
2022/02/20 12:16:21;;;;;;;6.03;1.98;;;18.50;96.70;;;;;;5045552;28;20082;-80
2022/02/20 12:19:05;;;;;;;5.97;2.20;;;18.40;96.70;;;;;;5075582;28;20197;-80
2022/02/20 12:21:49;;;;;;;4.85;2.00;;;18.40;96.70;;;;;;5061871;28;20169;-80
2022/02/20 12:24:18;;;;;;;4.45;1.73;;;18.50;96.70;;;;;;5064728;28;20165;-80
2022/02/20 12:26:51;;;;;;;5.82;2.70;;;18.40;96.70;;;;;;5046261;28;20044;-80
2022/02/20 12:29:20;;;;;;;9.80;3.55;;;18.40;96.70;;;;;;5063992;28;20071;-80
2022/02/20 12:32:01;;;;;;;5.93;2.20;;;18.50;96.70;;;;;;5034690;28;20051;-80
2022/02/20 12:34:50;;;;;;;5.50;2.17;;;18.50;96.70;;;;;;5045105;28;20032;-80
2022/02/20 12:37:27;;;;;;;7.78;2.65;;;18.60;96.70;;;;;;5035590;28;20491;-81
2022/02/20 12:40:01;;;;;;;5.68;2.35;;;18.60;96.70;;;;;;5060803;28;20056;-80
2022/02/20 12:42:34;;;;;;;5.57;2.90;;;18.70;96.70;;;;;;5063527;28;20506;-79
2022/02/20 12:45:07;;;;;;;6.47;2.38;;;18.70;96.70;;;;;;5062404;28;20052;-80
2022/02/20 12:47:38;;;;;;;3.85;1.92;;;18.70;96.70;;;;;;5062742;28;20033;-80
2022/02/20 12:50:10;;;;;;;6.70;2.85;;;18.70;96.70;;;;;;5067833;28;20522;-80
2022/02/20 12:52:40;;;;;;;15.35;9.30;;;18.50;96.70;;;;;;5062141;28;20097;-80
2022/02/20 12:55:14;;;;;;;10.52;3.22;;;18.70;96.70;;;;;;5062589;28;20051;-80
2022/02/20 12:57:44;;;;;;;11.60;5.32;;;18.60;96.70;;;;;;5061621;28;20086;-80
2022/02/20 13:00:18;;;;;;;8.13;2.35;;;18.50;96.70;;;;;;5063120;28;20044;-80
2022/02/20 13:02:51;;;;;;;6.55;2.55;;;18.50;96.70;;;;;;5060494;28;20048;-80
2022/02/20 13:05:22;;;;;;;9.73;2.45;;;18.60;96.70;;;;;;5061772;28;20822;-80
2022/02/20 13:07:52;;;;;;;8.10;2.70;;;18.50;96.70;;;;;;5065627;28;20040;-80